Time;durP1;ratioP1;P1;durP2;ratioP2;P2;SDS_P1;SDS_P2;PMS_P1;PMS_P2;Temp;Humidity;BMP_temperature;BMP_pressure;BME280_temperature;BME280_humidity;BME280_pressure;Samples;Min_cycle;Max_cycle;Signal;HPM_P1;HPM_P2
2022/04/09 00:00:01;;;;;;;;;;;;;;;10.11;100.00;93485.25;1028927;28;19996;-72
2022/04/09 00:00:31;;;;;;;;;;;;;;;10.08;100.00;93504.22;1029400;28;20434;-73
2022/04/09 00:01:01;;;;;;;;;;;;;;;10.22;100.00;93508.50;1028237;28;20359;-72
2022/04/09 00:01:32;;;;;;;;;;;;;;;10.18;100.00;93510.97;1026665;28;20493;-73
2022/04/09 00:02:02;;;;;;;;;;;;;;;10.12;100.00;93528.72;1023738;28;19923;-71
2022/04/09 00:02:33;;;;;;;;;;;;;;;10.26;100.00;93514.66;1028927;28;19956;-73
2022/04/09 00:03:03;;;;;;;;;;;;;;;10.27;100.00;93526.72;1034170;28;19921;-73
2022/04/09 00:03:34;;;;;;;;;;;;;;;10.20;100.00;93521.94;1038721;28;19962;-71
2022/04/09 00:04:04;;;;;;;;;;;;;;;10.14;100.00;93523.94;1026793;28;19926;-71
2022/04/09 00:04:34;;;;;;;;;;;;;;;10.13;100.00;93542.63;1028856;28;20380;-71
2022/04/09 00:05:05;;;;;;;;;;;;;;;10.13;100.00;93526.91;1031133;28;19922;-72
2022/04/09 00:05:35;;;;;;;;;;;;;;;10.18;100.00;93512.84;1033121;28;20686;-71
2022/04/09 00:06:09;;;;;;;;;;;;;;;10.10;100.00;93549.25;1037781;28;19956;-71
2022/04/09 00:06:39;;;;;;;;;;;;;;;10.04;100.00;93554.97;1031601;28;20000;-71
2022/04/09 00:07:09;;;;;;;;;;;;;;;9.93;100.00;93544.06;1033748;28;19991;-72
2022/04/09 00:07:39;;;;;;;;;;;;;;;9.81;100.00;93536.81;1034847;28;19917;-73
2022/04/09 00:08:10;;;;;;;;;;;;;;;9.75;100.00;93558.25;1037347;28;19925;-71
2022/04/09 00:08:40;;;;;;;;;;;;;;;9.62;100.00;93529.34;1035793;28;19932;-72
2022/04/09 00:09:10;;;;;;;;;;;;;;;9.59;100.00;93552.72;1034168;28;19960;-72
2022/04/09 00:09:41;;;;;;;;;;;;;;;9.54;100.00;93543.19;1034279;28;20561;-72
2022/04/09 00:10:11;;;;;;;;;;;;;;;9.49;100.00;93573.97;1033829;28;19928;-71
2022/04/09 00:10:44;;;;;;;;;;;;;;;9.45;100.00;93573.81;1037198;28;20170;-72
2022/04/09 00:11:14;;;;;;;;;;;;;;;9.45;100.00;93563.34;1038509;28;20361;-74
2022/04/09 00:11:45;;;;;;;;;;;;;;;9.38;100.00;93547.34;1035042;28;19936;-73
2022/04/09 00:12:15;;;;;;;;;;;;;;;9.37;100.00;93569.38;1030447;28;19925;-73
2022/04/09 00:12:47;;;;;;;;;;;;;;;9.39;100.00;93580.31;1027233;28;19954;-75
2022/04/09 00:13:19;;;;;;;;;;;;;;;9.43;100.00;93565.53;1018152;28;20631;-73
2022/04/09 00:13:49;;;;;;;;;;;;;;;9.35;100.00;93555.81;1021112;28;20793;-73
2022/04/09 00:14:20;;;;;;;;;;;;;;;9.31;100.00;93555.66;1024585;28;19919;-74
2022/04/09 00:14:50;;;;;;;;;;;;;;;9.24;100.00;93563.19;1023709;28;19929;-72
2022/04/09 00:15:20;;;;;;;;;;;;;;;9.20;100.00;93567.50;1030604;28;19917;-72
2022/04/09 00:15:51;;;;;;;;;;;;;;;9.18;100.00;93593.97;1033995;28;20413;-72
2022/04/09 00:16:21;;;;;;;;;;;;;;;9.17;100.00;93575.97;1033947;28;19989;-72
2022/04/09 00:16:51;;;;;;;;;;;;;;;9.11;100.00;93577.97;1033492;28;19957;-71
2022/04/09 00:17:22;;;;;;;;;;;;;;;9.04;100.00;93545.50;1034101;28;20383;-73
2022/04/09 00:17:52;;;;;;;;;;;;;;;9.08;100.00;93609.19;1031856;28;19921;-72
2022/04/09 00:18:22;;;;;;;;;;;;;;;9.20;100.00;93570.91;1034451;28;19922;-73
2022/04/09 00:18:52;;;;;;;;;;;;;;;9.17;100.00;93581.97;1034583;28;20453;-72
2022/04/09 00:19:23;;;;;;;;;;;;;;;9.17;100.00;93579.34;1026562;28;19922;-73
2022/04/09 00:19:53;;;;;;;;;;;;;;;9.13;100.00;93585.53;1030432;28;20044;-72
2022/04/09 00:20:23;;;;;;;;;;;;;;;9.12;100.00;93594.44;1030705;28;20383;-71
2022/04/09 00:20:54;;;;;;;;;;;;;;;9.11;100.00;93592.91;1030465;28;20386;-73
2022/04/09 00:21:25;;;;;;;;;;;;;;;9.09;100.00;93595.06;1030428;28;19952;-74
2022/04/09 00:21:57;;;;;;;;;;;;;;;9.12;100.00;93600.44;1026246;28;19922;-73
2022/04/09 00:22:27;;;;;;;;;;;;;;;9.11;100.00;93582.44;1026735;28;20384;-70
2022/04/09 00:22:58;;;;;;;;;;;;;;;9.04;100.00;93593.34;1026889;28;19914;-73
2022/04/09 00:23:28;;;;;;;;;;;;;;;9.00;100.00;93608.13;1031272;28;19944;-72
2022/04/09 00:23:58;;;;;;;;;;;;;;;8.95;100.00;93595.16;1038447;28;19913;-72
2022/04/09 00:24:29;;;;;;;;;;;;;;;9.06;100.00;93606.13;1030389;28;19914;-72
2022/04/09 00:24:59;;;;;;;;;;;;;;;9.02;100.00;93608.59;1030661;28;19925;-71
2022/04/09 00:25:29;;;;;;;;;;;;;;;9.01;100.00;93606.25;1030595;28;19936;-72
2022/04/09 00:26:00;;;;;;;;;;;;;;;8.93;100.00;93629.47;1027711;28;20319;-74
2022/04/09 00:26:30;;;;;;;;;;;;;;;8.94;100.00;93615.31;1030153;28;19913;-74
2022/04/09 00:27:06;;;;;;;;;;;;;;;8.91;100.00;93618.53;1021161;28;19910;-73
2022/04/09 00:27:39;;;;;;;;;;;;;;;8.90;100.00;93619.63;1022480;28;19968;-74
2022/04/09 00:28:09;;;;;;;;;;;;;;;8.90;100.00;93637.16;1024600;28;19911;-72
2022/04/09 00:28:40;;;;;;;;;;;;;;;8.87;100.00;93654.22;1028272;28;19929;-71
2022/04/09 00:29:10;;;;;;;;;;;;;;;8.80;100.00;93687.13;1034322;28;19925;-71
2022/04/09 00:29:40;;;;;;;;;;;;;;;8.67;100.00;93712.28;1034007;28;19918;-71
2022/04/09 00:30:11;;;;;;;;;;;;;;;8.44;100.00;93733.22;1034126;28;19910;-70
2022/04/09 00:30:41;;;;;;;;;;;;;;;7.71;100.00;93731.69;1026263;28;19937;-70
2022/04/09 00:31:11;;;;;;;;;;;;;;;7.08;100.00;93764.53;1030551;28;19914;-69
2022/04/09 00:31:42;;;;;;;;;;;;;;;6.78;100.00;93761.38;1034456;28;19925;-72
2022/04/09 00:32:14;;;;;;;;;;;;;;;6.49;100.00;93773.84;1034377;28;20008;-71
2022/04/09 00:32:45;;;;;;;;;;;;;;;6.25;100.00;93792.97;1041795;28;19917;-68
2022/04/09 00:33:15;;;;;;;;;;;;;;;6.04;100.00;93771.66;1038636;28;19905;-69
2022/04/09 00:33:45;;;;;;;;;;;;;;;5.78;100.00;93789.41;1038162;28;19921;-72
2022/04/09 00:34:16;;;;;;;;;;;;;;;5.71;100.00;93803.84;1036083;28;19925;-70
2022/04/09 00:34:46;;;;;;;;;;;;;;;5.46;100.00;93797.09;1038249;28;20508;-69
2022/04/09 00:35:16;;;;;;;;;;;;;;;5.34;100.00;93811.28;1034314;28;19939;-71
2022/04/09 00:35:47;;;;;;;;;;;;;;;5.24;100.00;93811.38;1034154;28;19917;-70
2022/04/09 00:36:17;;;;;;;;;;;;;;;5.16;100.00;93817.16;1034555;28;19917;-73
2022/04/09 00:36:48;;;;;;;;;;;;;;;5.05;100.00;93818.31;1029584;28;19922;-70
2022/04/09 00:37:18;;;;;;;;;;;;;;;4.91;100.00;93831.97;1030161;28;19946;-72
2022/04/09 00:37:48;;;;;;;;;;;;;;;4.83;100.00;93827.38;1029726;28;20654;-71
2022/04/09 00:38:19;;;;;;;;;;;;;;;4.73;100.00;93823.03;1030431;28;19917;-73
2022/04/09 00:38:49;;;;;;;;;;;;;;;4.64;100.00;93835.06;1030165;28;19929;-70
2022/04/09 00:39:19;;;;;;;;;;;;;;;4.54;100.00;93831.75;1030444;28;20692;-70
2022/04/09 00:39:50;;;;;;;;;;;;;;;4.46;100.00;93838.28;1030400;28;19929;-71
2022/04/09 00:40:22;;;;;;;;;;;;;;;4.44;100.00;93827.41;1030513;28;20721;-70
2022/04/09 00:40:53;;;;;;;;;;;;;;;4.38;100.00;93831.84;1027552;28;19961;-70
2022/04/09 00:41:26;;;;;;;;;;;;;;;4.34;100.00;93845.66;1026389;28;19924;-71
2022/04/09 00:41:57;;;;;;;;;;;;;;;4.29;100.00;93864.63;1026629;28;19961;-72
2022/04/09 00:42:27;;;;;;;;;;;;;;;4.21;100.00;93849.63;1025639;28;19922;-70
2022/04/09 00:42:57;;;;;;;;;;;;;;;4.16;100.00;93855.63;1027112;28;19914;-71
2022/04/09 00:43:28;;;;;;;;;;;;;;;4.14;100.00;93849.16;1030608;28;19925;-72
2022/04/09 00:44:01;;;;;;;;;;;;;;;4.07;100.00;93853.88;1026929;28;20009;-72
2022/04/09 00:44:31;;;;;;;;;;;;;;;4.05;100.00;93848.94;1026885;28;20380;-71
2022/04/09 00:45:02;;;;;;;;;;;;;;;4.04;100.00;93862.19;1026852;28;19940;-71
2022/04/09 00:45:32;;;;;;;;;;;;;;;4.03;100.00;93871.78;1031038;28;19922;-72
2022/04/09 00:46:02;;;;;;;;;;;;;;;3.99;100.00;93865.56;1034426;28;20007;-69
2022/04/09 00:46:35;;;;;;;;;;;;;;;3.95;100.00;93869.75;1032872;28;19933;-71
2022/04/09 00:47:07;;;;;;;;;;;;;;;3.93;100.00;93875.22;1029642;28;19925;-71
2022/04/09 00:47:37;;;;;;;;;;;;;;;3.91;100.00;93871.31;1026669;28;19922;-71
2022/04/09 00:48:08;;;;;;;;;;;;;;;3.90;100.00;93872.38;1022924;28;20013;-70
2022/04/09 00:48:38;;;;;;;;;;;;;;;3.87;100.00;93858.13;1023306;28;20005;-71
2022/04/09 00:49:09;;;;;;;;;;;;;;;3.86;100.00;93858.38;1026267;28;19918;-70
2022/04/09 00:49:39;;;;;;;;;;;;;;;3.80;100.00;93878.38;1026657;28;20005;-70
2022/04/09 00:50:10;;;;;;;;;;;;;;;3.78;100.00;93881.22;1030534;28;20387;-70
2022/04/09 00:50:40;;;;;;;;;;;;;;;3.77;100.00;93878.91;1031242;28;19914;-70
2022/04/09 00:51:11;;;;;;;;;;;;;;;3.77;100.00;93878.91;1033114;28;20528;-70
2022/04/09 00:51:44;;;;;;;;;;;;;;;3.76;100.00;93890.34;1023805;28;19949;-71
2022/04/09 00:52:14;;;;;;;;;;;;;;;3.73;100.00;93893.47;1018951;28;19923;-72
2022/04/09 00:52:49;;;;;;;;;;;;;;;3.76;100.00;93885.16;1026096;28;19949;-71
2022/04/09 00:53:20;;;;;;;;;;;;;;;3.74;100.00;93875.03;1029442;28;20646;-71
2022/04/09 00:53:50;;;;;;;;;;;;;;;3.71;100.00;93869.59;1035081;28;19918;-70
2022/04/09 00:54:20;;;;;;;;;;;;;;;3.69;100.00;93872.47;1037924;28;19913;-71
2022/04/09 00:54:50;;;;;;;;;;;;;;;3.68;100.00;93886.44;1038434;28;19913;-68
2022/04/09 00:56:15;;;;;;;;;;;;;;;3.65;100.00;93899.94;1034319;28;20085;-70
2022/04/09 00:56:45;;;;;;;;;;;;;;;3.59;100.00;93902.81;1033905;28;19922;-72
2022/04/09 00:57:16;;;;;;;;;;;;;;;3.51;100.00;93902.31;1033326;28;19917;-74
2022/04/09 00:57:46;;;;;;;;;;;;;;;3.45;100.00;93903.38;1031366;28;20272;-73
2022/04/09 00:58:17;;;;;;;;;;;;;;;3.36;100.00;93902.38;1034471;28;20503;-72
2022/04/09 00:58:57;;;;;;;;;;;;;;;3.33;100.00;93905.47;1030648;28;20394;-72
2022/04/09 00:59:29;;;;;;;;;;;;;;;3.23;100.00;93901.09;1030295;28;20428;-72
2022/04/09 00:59:59;;;;;;;;;;;;;;;3.16;100.00;93910.19;1032006;28;19929;-71
2022/04/09 01:00:29;;;;;;;;;;;;;;;3.16;100.00;93907.59;1029116;28;20370;-72
2022/04/09 01:00:59;;;;;;;;;;;;;;;3.14;100.00;93918.19;1030584;28;20345;-72
2022/04/09 01:01:32;;;;;;;;;;;;;;;3.13;100.00;93926.25;1032645;28;19925;-71
2022/04/09 01:02:02;;;;;;;;;;;;;;;3.01;100.00;93937.63;1034810;28;19921;-72
2022/04/09 01:02:42;;;;;;;;;;;;;;;2.94;100.00;93938.94;1038610;28;19917;-70
2022/04/09 01:03:16;;;;;;;;;;;;;;;2.89;100.00;93942.31;1038905;28;19925;-72
2022/04/09 01:03:47;;;;;;;;;;;;;;;2.81;100.00;93946.16;1038415;28;20036;-71
2022/04/09 01:04:17;;;;;;;;;;;;;;;2.79;100.00;93947.47;1032864;28;19973;-72
2022/04/09 01:04:50;;;;;;;;;;;;;;;2.77;100.00;93939.97;1030440;28;19918;-71
2022/04/09 01:05:20;;;;;;;;;;;;;;;2.69;100.00;93953.44;1026367;28;19918;-72
2022/04/09 01:05:51;;;;;;;;;;;;;;;2.57;100.00;93953.66;1022673;28;19914;-71
2022/04/09 01:06:22;;;;;;;;;;;;;;;2.49;100.00;93961.16;1023263;28;20558;-70
2022/04/09 01:06:52;;;;;;;;;;;;;;;2.47;100.00;93963.97;1030314;28;20023;-69
2022/04/09 01:07:23;;;;;;;;;;;;;;;2.44;100.00;93976.66;1034672;28;19964;-70
2022/04/09 01:07:53;;;;;;;;;;;;;;;2.35;100.00;93968.63;1038416;28;19960;-67
2022/04/09 01:08:26;;;;;;;;;;;;;;;2.31;100.00;93970.16;1034677;28;19921;-70
2022/04/09 01:08:56;;;;;;;;;;;;;;;2.27;100.00;93967.28;1034116;28;20007;-70
2022/04/09 01:09:26;;;;;;;;;;;;;;;2.21;100.00;93978.66;1026859;28;19922;-73
2022/04/09 01:09:57;;;;;;;;;;;;;;;2.20;100.00;93984.88;1030799;28;20391;-72
2022/04/09 01:10:27;;;;;;;;;;;;;;;2.15;100.00;93994.41;1030751;28;19917;-72
2022/04/09 01:10:57;;;;;;;;;;;;;;;2.09;100.00;93993.63;1026379;28;19918;-71
2022/04/09 01:11:28;;;;;;;;;;;;;;;2.00;100.00;94002.88;1030555;28;19964;-72
2022/04/09 01:11:58;;;;;;;;;;;;;;;1.89;100.00;93999.47;1025938;28;19922;-71
2022/04/09 01:12:28;;;;;;;;;;;;;;;1.77;100.00;94014.41;1022431;29;19915;-68
2022/04/09 01:12:59;;;;;;;;;;;;;;;1.69;100.00;94001.97;1030577;28;20406;-69
2022/04/09 01:13:29;;;;;;;;;;;;;;;1.62;100.00;94022.84;1026486;28;19953;-70
2022/04/09 01:13:59;;;;;;;;;;;;;;;1.54;100.00;94026.69;1029212;28;19972;-69
2022/04/09 01:14:29;;;;;;;;;;;;;;;1.49;100.00;94029.22;1038733;28;19924;-69
2022/04/09 01:15:02;;;;;;;;;;;;;;;1.45;100.00;94033.34;1038719;28;19917;-71
2022/04/09 01:15:32;;;;;;;;;;;;;;;1.36;100.00;94030.41;1028649;28;19914;-70
2022/04/09 01:16:02;;;;;;;;;;;;;;;1.30;100.00;94040.94;1026325;28;19918;-70
2022/04/09 01:16:33;;;;;;;;;;;;;;;1.26;100.00;94040.66;1026976;28;20600;-69
2022/04/09 01:17:03;;;;;;;;;;;;;;;1.19;100.00;94040.09;1029742;28;19914;-71
2022/04/09 01:17:37;;;;;;;;;;;;;;;1.11;100.00;94051.66;1038853;28;19916;-68
2022/04/09 01:18:12;;;;;;;;;;;;;;;1.07;100.00;94045.41;1038360;28;20019;-71
2022/04/09 01:18:43;;;;;;;;;;;;;;;0.94;100.00;94048.41;1034536;28;19918;-69
2022/04/09 01:19:19;;;;;;;;;;;;;;;0.87;100.00;94048.59;1034656;28;19953;-69
2022/04/09 01:19:49;;;;;;;;;;;;;;;0.78;100.00;94055.22;1034587;28;20020;-70
2022/04/09 01:20:20;;;;;;;;;;;;;;;0.69;100.00;94057.44;1035229;28;19921;-70
2022/04/09 01:20:51;;;;;;;;;;;;;;;0.64;100.00;94049.66;1038438;28;20416;-70
2022/04/09 01:21:23;;;;;;;;;;;;;;;0.58;100.00;94050.63;1034552;28;20008;-70
2022/04/09 01:21:57;;;;;;;;;;;;;;;0.52;100.00;94061.13;1032940;28;19999;-69
2022/04/09 01:22:27;;;;;;;;;;;;;;;0.43;100.00;94077.00;1028831;28;19914;-72
2022/04/09 01:22:57;;;;;;;;;;;;;;;0.36;100.00;94073.06;1027299;28;19910;-70
2022/04/09 01:23:28;;;;;;;;;;;;;;;0.32;100.00;94085.66;1030507;28;19917;-70
2022/04/09 01:23:59;;;;;;;;;;;;;;;0.25;100.00;94079.13;1031598;28;19917;-70
2022/04/09 01:24:29;;;;;;;;;;;;;;;0.21;100.00;94087.34;1034507;28;20806;-73
2022/04/09 01:24:59;;;;;;;;;;;;;;;0.18;100.00;94092.97;1034609;28;19914;-70
2022/04/09 01:25:30;;;;;;;;;;;;;;;0.16;100.00;94089.06;1034598;28;19914;-71
2022/04/09 01:26:02;;;;;;;;;;;;;;;0.13;100.00;94098.03;1030523;28;19909;-71
2022/04/09 01:26:32;;;;;;;;;;;;;;;0.13;100.00;94100.63;1030341;28;19914;-71
2022/04/09 01:27:02;;;;;;;;;;;;;;;0.10;100.00;94098.53;1025656;28;19946;-68
2022/04/09 01:27:33;;;;;;;;;;;;;;;0.10;100.00;94095.97;1022573;28;19938;-70
2022/04/09 01:28:03;;;;;;;;;;;;;;;0.11;100.00;94097.53;1022433;29;19910;-74
2022/04/09 01:28:36;;;;;;;;;;;;;;;0.14;100.00;94096.28;1026429;28;20013;-70
2022/04/09 01:29:07;;;;;;;;;;;;;;;0.12;100.00;94104.22;1028543;28;19973;-69
2022/04/09 01:29:37;;;;;;;;;;;;;;;0.11;100.00;94107.84;1034612;28;20702;-70
2022/04/09 01:30:08;;;;;;;;;;;;;;;0.11;100.00;94114.78;1034554;28;20278;-71
2022/04/09 01:30:38;;;;;;;;;;;;;;;0.10;100.00;94111.44;1030200;28;19905;-69
2022/04/09 01:31:09;;;;;;;;;;;;;;;0.12;100.00;94122.28;1022567;28;19997;-71
2022/04/09 01:31:39;;;;;;;;;;;;;;;0.11;100.00;94122.53;1018498;29;19911;-70
2022/04/09 01:32:10;;;;;;;;;;;;;;;0.10;100.00;94126.91;1018658;29;19926;-75
2022/04/09 01:32:40;;;;;;;;;;;;;;;0.11;100.00;94138.78;1021268;28;19926;-70
2022/04/09 01:33:17;;;;;;;;;;;;;;;0.13;100.00;94133.38;1030743;28;19906;-70
2022/04/09 01:33:48;;;;;;;;;;;;;;;0.14;100.00;94145.25;1034553;28;19921;-71
2022/04/09 01:34:18;;;;;;;;;;;;;;;0.14;100.00;94147.84;1035096;28;20315;-70
2022/04/09 01:34:48;;;;;;;;;;;;;;;0.14;100.00;94153.78;1033324;28;19968;-70
2022/04/09 01:35:19;;;;;;;;;;;;;;;0.21;100.00;94143.31;1032257;28;19995;-69
2022/04/09 01:35:52;;;;;;;;;;;;;;;0.22;100.00;94145.63;1034438;28;19929;-71
2022/04/09 01:36:22;;;;;;;;;;;;;;;0.23;100.00;94152.38;1030635;28;19942;-70
2022/04/09 01:36:52;;;;;;;;;;;;;;;0.25;100.00;94144.38;1029712;28;19969;-71
2022/04/09 01:37:23;;;;;;;;;;;;;;;0.26;100.00;94150.31;1030982;28;20367;-69
2022/04/09 01:37:53;;;;;;;;;;;;;;;0.26;100.00;94148.50;1027010;28;20459;-68
2022/04/09 01:38:23;;;;;;;;;;;;;;;0.28;100.00;94154.22;1030295;28;19921;-71
2022/04/09 01:38:54;;;;;;;;;;;;;;;0.30;100.00;94156.56;1034423;28;19917;-70
2022/04/09 01:39:24;;;;;;;;;;;;;;;0.28;100.00;94158.59;1031253;28;19933;-69
2022/04/09 01:39:54;;;;;;;;;;;;;;;0.31;100.00;94160.72;1034608;28;20318;-71
2022/04/09 01:40:24;;;;;;;;;;;;;;;0.31;100.00;94150.41;1034512;28;19918;-73
2022/04/09 01:40:55;;;;;;;;;;;;;;;0.31;100.00;94163.28;1038040;28;19918;-69
2022/04/09 01:41:25;;;;;;;;;;;;;;;0.32;100.00;94160.47;1035406;28;19949;-69
2022/04/09 01:41:56;;;;;;;;;;;;;;;0.34;100.00;94170.56;1034432;28;19921;-69
2022/04/09 01:42:26;;;;;;;;;;;;;;;0.35;100.00;94175.47;1034368;28;19921;-69
2022/04/09 01:42:56;;;;;;;;;;;;;;;0.37;100.00;94163.13;1034304;28;19922;-69
2022/04/09 01:43:27;;;;;;;;;;;;;;;0.39;100.00;94180.94;1030332;28;19972;-71
2022/04/09 01:43:57;;;;;;;;;;;;;;;0.39;100.00;94181.72;1034539;28;19924;-70
2022/04/09 01:44:27;;;;;;;;;;;;;;;0.40;100.00;94178.13;1034256;28;19964;-70
2022/04/09 01:44:58;;;;;;;;;;;;;;;0.44;100.00;94178.44;1034552;28;20393;-70
2022/04/09 01:45:31;;;;;;;;;;;;;;;0.44;100.00;94188.75;1030684;28;19917;-71
2022/04/09 01:46:01;;;;;;;;;;;;;;;0.40;100.00;94182.50;1030241;28;19917;-70
2022/04/09 01:46:31;;;;;;;;;;;;;;;0.47;100.00;94183.13;1023979;28;19918;-69
2022/04/09 01:47:02;;;;;;;;;;;;;;;0.51;100.00;94184.22;1022574;28;19918;-70
2022/04/09 01:47:32;;;;;;;;;;;;;;;0.52;100.00;94190.16;1028762;28;20005;-69
2022/04/09 01:48:03;;;;;;;;;;;;;;;0.51;100.00;94184.22;1030584;28;19917;-70
2022/04/09 01:48:33;;;;;;;;;;;;;;;0.50;100.00;94192.94;1031433;28;19961;-69
2022/04/09 01:49:04;;;;;;;;;;;;;;;0.52;100.00;94193.50;1031221;28;19914;-68
2022/04/09 01:49:34;;;;;;;;;;;;;;;0.56;100.00;94202.31;1035176;28;19944;-71
2022/04/09 01:50:05;;;;;;;;;;;;;;;0.36;100.00;94171.09;1039355;28;19921;-71
2022/04/09 01:50:35;;;;;;;;;;;;;;;0.58;100.00;94210.63;1039384;28;19917;-72
2022/04/09 01:51:05;;;;;;;;;;;;;;;0.58;100.00;94220.94;1038960;28;19921;-70
2022/04/09 01:51:35;;;;;;;;;;;;;;;0.59;100.00;94222.50;1037557;28;19952;-69
2022/04/09 01:52:07;;;;;;;;;;;;;;;0.62;100.00;94219.44;1039227;28;20323;-70
2022/04/09 01:52:37;;;;;;;;;;;;;;;0.66;100.00;94217.94;1035360;28;19920;-70
2022/04/09 01:53:07;;;;;;;;;;;;;;;0.64;100.00;94224.38;1039769;28;19932;-69
2022/04/09 01:53:38;;;;;;;;;;;;;;;0.64;100.00;94229.53;1030992;28;19956;-69
2022/04/09 01:54:11;;;;;;;;;;;;;;;0.65;100.00;94241.41;1035694;28;20540;-70
2022/04/09 01:54:41;;;;;;;;;;;;;;;0.65;100.00;94244.78;1034879;28;19918;-68
2022/04/09 01:55:12;;;;;;;;;;;;;;;0.66;100.00;94248.91;1031585;28;20329;-69
2022/04/09 01:55:43;;;;;;;;;;;;;;;0.65;100.00;94249.94;1031941;28;19924;-70
2022/04/09 01:56:15;;;;;;;;;;;;;;;0.63;100.00;94254.53;1031502;28;19957;-67
2022/04/09 01:56:48;;;;;;;;;;;;;;;0.67;100.00;94265.97;1027092;28;19910;-69
2022/04/09 01:57:19;;;;;;;;;;;;;;;0.65;100.00;94262.84;1032863;28;19917;-69
2022/04/09 01:57:49;;;;;;;;;;;;;;;0.65;100.00;94272.38;1025698;28;19915;-69
2022/04/09 01:58:20;;;;;;;;;;;;;;;0.66;100.00;94279.88;1028488;28;19965;-70
2022/04/09 01:58:50;;;;;;;;;;;;;;;0.66;100.00;94285.03;1032271;28;20295;-69
2022/04/09 01:59:21;;;;;;;;;;;;;;;0.66;100.00;94276.53;1036446;28;19918;-68
2022/04/09 01:59:51;;;;;;;;;;;;;;;0.68;100.00;94271.91;1039823;28;19921;-71
2022/04/09 02:00:22;;;;;;;;;;;;;;;0.64;100.00;94276.78;1036077;28;20003;-71
2022/04/09 02:00:58;;;;;;;;;;;;;;;0.65;100.00;94283.50;1036132;28;20468;-69
2022/04/09 02:01:29;;;;;;;;;;;;;;;0.63;100.00;94280.34;1036109;28;19921;-69
2022/04/09 02:01:59;;;;;;;;;;;;;;;0.63;100.00;94293.25;1028764;28;19950;-71
2022/04/09 02:02:29;;;;;;;;;;;;;;;0.62;100.00;94294.28;1032636;28;19989;-70
2022/04/09 02:03:00;;;;;;;;;;;;;;;0.61;100.00;94307.44;1032124;28;19964;-70
2022/04/09 02:03:31;;;;;;;;;;;;;;;0.61;100.00;94303.06;1031965;28;19914;-68
2022/04/09 02:04:05;;;;;;;;;;;;;;;0.60;100.00;94298.88;1040131;28;19920;-70
2022/04/09 02:04:35;;;;;;;;;;;;;;;0.61;100.00;94310.78;1036143;28;20486;-70
2022/04/09 02:05:05;;;;;;;;;;;;;;;0.66;100.00;94315.25;1035860;28;19913;-70
2022/04/09 02:05:39;;;;;;;;;;;;;;;0.63;100.00;94305.38;1027925;28;19953;-68
2022/04/09 02:06:09;;;;;;;;;;;;;;;0.63;100.00;94311.31;1024993;28;19918;-68
2022/04/09 02:06:39;;;;;;;;;;;;;;;0.40;100.00;94285.69;1031682;28;19918;-71
2022/04/09 02:07:09;;;;;;;;;;;;;;;0.66;100.00;94321.19;1031554;28;19918;-70
2022/04/09 02:07:41;;;;;;;;;;;;;;;0.67;100.00;94322.78;1037855;28;19914;-70
2022/04/09 02:08:11;;;;;;;;;;;;;;;0.66;100.00;94330.72;1035877;28;19913;-68
2022/04/09 02:08:44;;;;;;;;;;;;;;;0.64;100.00;94336.13;1034302;28;19920;-68
2022/04/09 02:09:14;;;;;;;;;;;;;;;0.61;100.00;94334.03;1036047;28;19971;-69
2022/04/09 02:09:44;;;;;;;;;;;;;;;0.60;100.00;94340.19;1035730;28;19975;-70
2022/04/09 02:10:18;;;;;;;;;;;;;;;0.62;100.00;94338.16;1028006;28;19959;-70
2022/04/09 02:10:48;;;;;;;;;;;;;;;0.60;100.00;94347.94;1027770;28;19926;-69
2022/04/09 02:11:18;;;;;;;;;;;;;;;0.62;100.00;94350.28;1023963;29;20306;-69
2022/04/09 02:11:49;;;;;;;;;;;;;;;0.60;100.00;94349.72;1025056;28;19927;-69
2022/04/09 02:12:19;;;;;;;;;;;;;;;0.60;100.00;94342.75;1031802;28;19930;-70
2022/04/09 02:12:49;;;;;;;;;;;;;;;0.59;100.00;94348.94;1031719;28;19961;-73
2022/04/09 02:13:20;;;;;;;;;;;;;;;0.60;100.00;94339.41;1036041;28;19921;-70
2022/04/09 02:13:51;;;;;;;;;;;;;;;0.57;100.00;94347.63;1027754;28;20393;-69
2022/04/09 02:14:21;;;;;;;;;;;;;;;0.59;100.00;94346.38;1027918;28;19914;-69
2022/04/09 02:14:51;;;;;;;;;;;;;;;0.62;100.00;94350.28;1027866;28;19914;-69
2022/04/09 02:15:22;;;;;;;;;;;;;;;0.63;100.00;94347.47;1027972;28;19922;-70
2022/04/09 02:15:52;;;;;;;;;;;;;;;0.58;100.00;94344.81;1032022;28;20415;-68
2022/04/09 02:16:22;;;;;;;;;;;;;;;0.60;100.00;94342.00;1035806;28;19918;-69
2022/04/09 02:16:52;;;;;;;;;;;;;;;0.59;100.00;94351.53;1035301;28;19922;-67
2022/04/09 02:17:23;;;;;;;;;;;;;;;0.59;100.00;94351.53;1024892;28;20706;-67
2022/04/09 02:17:53;;;;;;;;;;;;;;;0.55;100.00;94347.09;1020012;29;19934;-68
2022/04/09 02:18:23;;;;;;;;;;;;;;;0.54;100.00;94348.88;1023793;28;19965;-67
2022/04/09 02:18:54;;;;;;;;;;;;;;;0.55;100.00;94358.19;1027868;28;19922;-70
2022/04/09 02:19:24;;;;;;;;;;;;;;;0.55;100.00;94358.19;1035990;28;19918;-68
2022/04/09 02:19:54;;;;;;;;;;;;;;;0.54;100.00;94369.53;1036411;28;20011;-69
2022/04/09 02:20:24;;;;;;;;;;;;;;;0.53;100.00;94367.94;1036216;28;19925;-70
2022/04/09 02:20:55;;;;;;;;;;;;;;;0.54;100.00;94377.28;1039794;28;19921;-69
2022/04/09 02:21:25;;;;;;;;;;;;;;;0.55;100.00;94376.25;1035806;28;19910;-69
2022/04/09 02:22:04;;;;;;;;;;;;;;;0.56;100.00;94377.81;1031850;28;19914;-69
2022/04/09 02:22:38;;;;;;;;;;;;;;;0.58;100.00;94388.69;1028791;28;19914;-71
2022/04/09 02:23:08;;;;;;;;;;;;;;;0.59;100.00;94400.56;1033437;28;19914;-69
2022/04/09 02:23:38;;;;;;;;;;;;;;;0.55;100.00;94396.91;1036984;28;19912;-69
2022/04/09 02:24:09;;;;;;;;;;;;;;;0.53;100.00;94409.25;1035694;28;19917;-69
2022/04/09 02:24:43;;;;;;;;;;;;;;;0.53;100.00;94409.25;1031862;28;19914;-69
2022/04/09 02:25:14;;;;;;;;;;;;;;;0.56;100.00;94413.16;1031841;28;19914;-71
2022/04/09 02:25:45;;;;;;;;;;;;;;;0.58;100.00;94411.91;1032428;28;20478;-69
2022/04/09 02:26:15;;;;;;;;;;;;;;;0.56;100.00;94413.94;1036015;28;19913;-69
2022/04/09 02:26:48;;;;;;;;;;;;;;;0.59;100.00;94423.00;1031461;28;19950;-69
2022/04/09 02:27:19;;;;;;;;;;;;;;;0.60;100.00;94422.00;1031875;28;20463;-69
2022/04/09 02:27:49;;;;;;;;;;;;;;;0.58;100.00;94417.06;1027832;28;19910;-68
2022/04/09 02:28:19;;;;;;;;;;;;;;;0.59;100.00;94421.22;1027891;28;19950;-69
2022/04/09 02:28:50;;;;;;;;;;;;;;;0.59;100.00;94423.78;1031766;28;19913;-69
2022/04/09 02:29:20;;;;;;;;;;;;;;;0.59;100.00;94428.19;1035828;28;19921;-70
2022/04/09 02:29:50;;;;;;;;;;;;;;;0.56;100.00;94421.69;1044061;28;20378;-71
2022/04/09 02:30:21;;;;;;;;;;;;;;;0.58;100.00;94422.25;1039929;28;19909;-70
2022/04/09 02:30:51;;;;;;;;;;;;;;;0.65;100.00;94428.03;1035663;28;20345;-70
2022/04/09 02:31:22;;;;;;;;;;;;;;;0.62;100.00;94428.50;1035846;28;19918;-68
2022/04/09 02:31:53;;;;;;;;;;;;;;;0.64;100.00;94436.03;1035936;28;19921;-69
2022/04/09 02:32:24;;;;;;;;;;;;;;;0.63;100.00;94430.06;1035867;28;20465;-70
2022/04/09 02:32:54;;;;;;;;;;;;;;;0.64;100.00;94436.81;1039826;28;19921;-70
2022/04/09 02:33:25;;;;;;;;;;;;;;;0.62;100.00;94441.41;1039903;28;19972;-67
2022/04/09 02:33:55;;;;;;;;;;;;;;;0.63;100.00;94440.38;1039917;28;19917;-69
2022/04/09 02:34:25;;;;;;;;;;;;;;;0.63;100.00;94435.22;1038966;28;19972;-68
2022/04/09 02:34:56;;;;;;;;;;;;;;;0.63;100.00;94437.78;1040095;28;19941;-68
2022/04/09 02:35:28;;;;;;;;;;;;;;;0.64;100.00;94436.03;1035776;28;19926;-68
2022/04/09 02:35:58;;;;;;;;;;;;;;;0.65;100.00;94438.34;1036083;28;20403;-70
2022/04/09 02:36:29;;;;;;;;;;;;;;;0.66;100.00;94433.97;1035784;28;19913;-70
2022/04/09 02:36:59;;;;;;;;;;;;;;;0.65;100.00;94440.94;1031388;28;20385;-71
2022/04/09 02:37:32;;;;;;;;;;;;;;;0.64;100.00;94444.53;1031507;28;20407;-69
2022/04/09 02:38:03;;;;;;;;;;;;;;;0.64;100.00;94436.03;1028306;28;20312;-69
2022/04/09 02:38:33;;;;;;;;;;;;;;;0.64;100.00;94439.38;1028415;28;19922;-68
2022/04/09 02:39:03;;;;;;;;;;;;;;;0.64;100.00;94444.53;1032141;28;19918;-70
2022/04/09 02:39:33;;;;;;;;;;;;;;;0.66;100.00;94455.41;1031341;28;20107;-68
2022/04/09 02:40:04;;;;;;;;;;;;;;;0.65;100.00;94451.25;1035690;28;19968;-70
2022/04/09 02:40:35;;;;;;;;;;;;;;;0.61;100.00;94457.91;1040069;28;20012;-71
2022/04/09 02:41:12;;;;;;;;;;;;;;;0.62;100.00;94458.69;1035478;28;19921;-68